Impacts METAR Board INFO
IDs:

KDTW - Detroit Metro/Wayne, MI, US

Updated at: 1405 UTC 24 Feb 2018
Potential Impact None Slight Moderate High
Time24/02Z 24/03Z 24/04Z 24/05Z 24/06Z 24/07Z 24/08Z 24/09Z 24/10Z 24/11Z 24/12Z 24/13Z 24/14Z
VIS10 10 10 10 10 10 10 10 10 10 10 9 10
CIG17 13 15 15 14 15 15 15 18 20 20 20 23
CoverOVCOVCOVCOVCOVCOVCOVCOVCOVCOVCOVCOVCOVC
FltCatMVFRMVFRMVFRMVFRMVFRMVFRMVFRMVFRMVFRMVFRMVFRMVFRMVFR
WX--------------------------
WDir260300310320310310340101010202050
WSpd11 10 10 5 8 6 6 7 6 6 4 4 8
WGst-- -- -- -- -- -- -- -- -- -- -- -- --
Raw hourly METARs
KDTW 240153Z 26011KT 10SM OVC017 08/04 A3019 RMK AO2 SLP228 T00780044
KDTW 240304Z 30010KT 10SM OVC013 07/04 A3020 RMK AO2 T00670039
KDTW 240403Z 31010KT 10SM OVC015 06/03 A3021 RMK AO2 T00560028
KDTW 240453Z 32005KT 10SM OVC015 05/02 A3022 RMK AO2 SLP237 T00500022 401000017
KDTW 240603Z 31008KT 10SM OVC014 04/01 A3024 RMK AO2 T00440011
KDTW 240653Z 31006KT 10SM OVC015 04/01 A3026 RMK AO2 SLP249 T00390011
KDTW 240753Z 34006KT 10SM OVC015 04/01 A3022 RMK AO2 SLP238 T00390006
KDTW 240853Z 01007KT 10SM OVC015 04/00 A3024 RMK AO2 SLP244 T00390000 51005 $
KDTW 240953Z 01006KT 10SM OVC018 03/00 A3024 RMK AO2 SLP244 T00330000 $
KDTW 241053Z 01006KT 10SM BKN020 OVC140 03/M01 A3024 RMK AO2 SLP244 T00331006 $
KDTW 241153Z 02004KT 10SM OVC020 03/M01 A3024 RMK AO2 SLP243 70020 T00331006 10044 20033 58002 $
KDTW 241253Z 02004KT 9SM OVC020 03/00 A3023 RMK AO2 SLP240 T00330000 $
KDTW 241353Z 05008KT 10SM FEW015 BKN023 OVC100 04/M01 A3022 RMK AO2 SLP237 T00391006 $